^^
Station Historical Data
Daily Summary for January 24, 2018 Units:  Metric    English   Both
« Previous Day
Next Day »
Daily Weekly Monthly Yearly Custom
  High: Low: Average:
Temperature: -17.8 °C 16.3 °C 22.3 °C
Dew Point: -17.8 °C 5.7 °C 11.6 °C
Humidity: Humidity% 19% 55%
Wind Speed: 0km/h 0km/h 18km/h
Wind Gust: 0km/h - -
Wind- - SSW
Pressure: 0 hPa 1003.9 hPa -
Precipitation: 0 mm    
Historical Graphs
 
 
Tabular Data for January 24, 2018
Time Temperature Dew Point Pressure Wind Wind Speed Wind Gust Humidity Rainfall Rate (Hourly) solar Conditions
-17.8 °C -17.8 °C 0 hPa Calm     Humidity% 0 mm SolarRadiationWatts/m^2 W/m2 Conditions
00:02 20.3 °C 12.3 °C 1008 hPa SSW 17.7 km/h 29 km/h 60% 0 mm 0.0 W/m2
00:07 20.3 °C 12.5 °C 1008.4 hPa South 24.1 km/h 30.6 km/h 61% 0 mm 0.0 W/m2
00:12 20.2 °C 12.7 °C 1008.4 hPa South 17.7 km/h 27.4 km/h 62% 0 mm 0.0 W/m2
00:22 20.1 °C 12.6 °C 1008.4 hPa South 24.1 km/h 25.7 km/h 62% 0 mm 0.0 W/m2
00:27 20 °C 12.5 °C 1008.4 hPa South 22.7 km/h 24.1 km/h 62% 0 mm 0.0 W/m2
00:37 19.8 °C 12.6 °C 1008 hPa SSW 20.9 km/h 22.5 km/h 63% 0 mm 0.0 W/m2
00:42 19.8 °C 12.8 °C 1008 hPa South 16.3 km/h 25.7 km/h 64% 0 mm 0.0 W/m2
00:47 19.7 °C 12.7 °C 1008.4 hPa South 16.3 km/h 24.1 km/h 64% 0 mm 0.0 W/m2
00:52 19.7 °C 12.7 °C 1008.4 hPa South 25.9 km/h 25.9 km/h 64% 0 mm 0.0 W/m2
00:57 19.6 °C 12.8 °C 1008 hPa South 17.7 km/h 25.7 km/h 65% 0 mm 0.0 W/m2
01:08 19.4 °C 12.9 °C 1008 hPa South 25.9 km/h 27.4 km/h 66% 0 mm 0.0 W/m2
01:18 19.3 °C 12.8 °C 1008 hPa SSW 14.3 km/h 24.1 km/h 66% 0 mm 0.0 W/m2
01:23 19.2 °C 12.7 °C 1008 hPa South 20.9 km/h 24.1 km/h 66% 0 mm 0.0 W/m2
01:33 19.1 °C 12.8 °C 1008 hPa SSW 14.3 km/h 22.5 km/h 67% 0 mm 0.0 W/m2
01:38 19.1 °C 13.1 °C 1008 hPa SSW 13 km/h 22.5 km/h 68% 0 mm 0.0 W/m2
01:43 19 °C 13 °C 1008 hPa SSW 16.3 km/h 22.5 km/h 68% 0 mm 0.0 W/m2
01:53 18.9 °C 13.1 °C 1008 hPa South 19.5 km/h 24.1 km/h 69% 0 mm 0.0 W/m2
01:58 18.8 °C 13 °C 1008 hPa South 20.9 km/h 24.1 km/h 69% 0 mm 0.0 W/m2
02:08 18.7 °C 13.1 °C 1008 hPa SSW 20.9 km/h 22.5 km/h 70% 0 mm 0.0 W/m2
02:13 18.6 °C 13.2 °C 1008 hPa SSW 20.9 km/h 25.7 km/h 71% 0 mm 0.0 W/m2
02:18 18.6 °C 13.2 °C 1008 hPa SSW 16.3 km/h 24.1 km/h 71% 0 mm 0.0 W/m2
02:23 18.4 °C 13 °C 1008 hPa SSW 24.1 km/h 29 km/h 71% 0 mm 0.0 W/m2
02:28 18.4 °C 13.3 °C 1008 hPa SSW 17.7 km/h 24.1 km/h 72% 0 mm 0.0 W/m2
02:33 18.3 °C 13.2 °C 1008 hPa SSW 24.1 km/h 25.7 km/h 72% 0 mm 0.0 W/m2
02:48 18.2 °C 13.5 °C 1008 hPa SSW 22.7 km/h 25.7 km/h 74% 0 mm 0.0 W/m2
02:53 18.1 °C 13.4 °C 1007.7 hPa SSW 24.1 km/h 24.1 km/h 74% 0 mm 0.0 W/m2
02:58 18 °C 13.3 °C 1008 hPa SSW 16.3 km/h 20.9 km/h 74% 0 mm 0.0 W/m2
03:03 18 °C 13.3 °C 1008 hPa SSW 16.3 km/h 20.9 km/h 74% 0 mm 0.0 W/m2
03:13 17.9 °C 13.4 °C 1008 hPa SSW 16.3 km/h 19.3 km/h 75% 0 mm 0.0 W/m2
03:18 17.8 °C 13.3 °C 1007.7 hPa SSW 16.3 km/h 19.3 km/h 75% 0 mm 0.0 W/m2
03:23 17.8 °C 13.3 °C 1007.7 hPa SSW 16.3 km/h 25.7 km/h 75% 0 mm 0.0 W/m2
03:28 17.8 °C 13.1 °C 1007.7 hPa SSW 19.5 km/h 20.9 km/h 74% 0 mm 0.0 W/m2
03:33 17.7 °C 13.2 °C 1007.7 hPa SSW 16.3 km/h 22.5 km/h 75% 0 mm 0.0 W/m2
03:38 17.6 °C 13.3 °C 1007.7 hPa SSW 20.9 km/h 22.5 km/h 76% 0 mm 0.0 W/m2
03:43 17.6 °C 13.3 °C 1007.7 hPa SSW 13 km/h 24.1 km/h 76% 0 mm 0.0 W/m2
03:53 17.4 °C 13.3 °C 1007.7 hPa SSW 14.3 km/h 20.9 km/h 77% 0 mm 0.0 W/m2
03:59 17.4 °C 13.5 °C 1008 hPa SSW 16.3 km/h 22.5 km/h 78% 0 mm 0.0 W/m2
04:04 17.3 °C 13.4 °C 1008 hPa SSW 14.3 km/h 20.9 km/h 78% 0 mm 0.0 W/m2
04:09 17.3 °C 13.4 °C 1008 hPa South 14.3 km/h 20.9 km/h 78% 0 mm 0.0 W/m2
04:14 17.2 °C 13.5 °C 1008 hPa SSW 14.3 km/h 22.5 km/h 79% 0 mm 0.0 W/m2
04:19 17.2 °C 13.5 °C 1008 hPa South 14.3 km/h 22.5 km/h 79% 0 mm 0.0 W/m2
04:24 17.1 °C 13.4 °C 1007.7 hPa SSW 16.3 km/h 20.9 km/h 79% 0 mm 0.0 W/m2
04:29 17.1 °C 13.4 °C 1007.7 hPa SSW 16.3 km/h 20.9 km/h 79% 0 mm 0.0 W/m2
04:39 17 °C 13.5 °C 1007.7 hPa SSW 13 km/h 19.3 km/h 80% 0 mm 0.0 W/m2
04:44 17 °C 13.5 °C 1007.7 hPa SSW 16.3 km/h 19.3 km/h 80% 0 mm 0.0 W/m2
04:49 16.9 °C 13.4 °C 1008 hPa SSW 9.7 km/h 17.7 km/h 80% 0 mm 0.0 W/m2
04:54 16.9 °C 13.6 °C 1007.7 hPa SSW 17.7 km/h 19.3 km/h 81% 0 mm 0.0 W/m2
05:00 16.8 °C 13.5 °C 1007.7 hPa SSW 14.3 km/h 17.7 km/h 81% 0 mm 0.0 W/m2
05:20 16.7 °C 13.4 °C 1008 hPa SSW 14.3 km/h 19.3 km/h 81% 0 mm 0.0 W/m2
05:30 16.7 °C 13.4 °C 1008 hPa SSW 17.7 km/h 19.3 km/h 81% 0 mm 0.0 W/m2
05:35 16.7 °C 13.6 °C 1008 hPa SSW 14.3 km/h 20.9 km/h 82% 0 mm 0.0 W/m2
05:45 16.6 °C 13.5 °C 1008.4 hPa SSW 14.3 km/h 22.5 km/h 82% 0 mm 0.0 W/m2
05:50 16.5 °C 13.4 °C 1008.4 hPa SSW 9.7 km/h 16.1 km/h 82% 0 mm 0.0 W/m2
06:10 16.4 °C 13.5 °C 1008.7 hPa SSW 13 km/h 19.3 km/h 83% 0 mm 0.0 W/m2
06:16 16.3 °C 13.4 °C 1008.7 hPa SSW 9.7 km/h 16.1 km/h 83% 0 mm 0.0 W/m2
06:25 16.3 °C 13.4 °C 1009 hPa SSW 13 km/h 19.3 km/h 83% 0 mm 11.0 W/m2
06:30 16.3 °C 13.4 °C 1009 hPa SSW 11.1 km/h 16.1 km/h 83% 0 mm 12.0 W/m2
06:36 16.3 °C 13.4 °C 1009 hPa SSW 9.7 km/h 16.1 km/h 83% 0 mm 16.0 W/m2
06:42 16.3 °C 13.4 °C 1009 hPa SSW 14.3 km/h 14.5 km/h 83% 0 mm 23.0 W/m2
06:47 16.4 °C 13.5 °C 1009 hPa SSW 9.7 km/h 17.7 km/h 83% 0 mm 35.0 W/m2
06:59 16.5 °C 13.4 °C 1009 hPa SSW 9.7 km/h 16.1 km/h 82% 0 mm 65.0 W/m2
07:10 16.7 °C 13.4 °C 1009 hPa SSW 17.7 km/h 17.7 km/h 81% 0 mm 102.0 W/m2
07:18 16.9 °C 13.6 °C 1009 hPa SSW 13 km/h 16.1 km/h 81% 0 mm 142.0 W/m2
07:40 17.3 °C 13.6 °C 1009.4 hPa SSW 14.3 km/h 19.3 km/h 79% 0 mm 225.0 W/m2
08:21 18.2 °C 13.7 °C 1009.4 hPa SSW 16.3 km/h 19.3 km/h 75% 0 mm 366.0 W/m2
08:35 18.7 °C 13.8 °C 1009 hPa SSW 17.7 km/h 19.3 km/h 73% 0 mm 422.0 W/m2
08:43 19.1 °C 13.7 °C 1009 hPa SSW 19.5 km/h 22.5 km/h 71% 0 mm 452.0 W/m2
08:57 19.7 °C 13.6 °C 1009 hPa SW 14.3 km/h 22.5 km/h 68% 0 mm 503.0 W/m2
09:03 19.9 °C 13.8 °C 1009 hPa SW 13 km/h 20.9 km/h 68% 0 mm 520.0 W/m2
09:09 20.1 °C 13.8 °C 1009 hPa SW 13 km/h 20.9 km/h 67% 0 mm 538.0 W/m2
09:37 20.9 °C 13.6 °C 1009 hPa SW 6.4 km/h 17.7 km/h 63% 0 mm 617.0 W/m2
09:52 21.4 °C 13.6 °C 1008.7 hPa SW 17.7 km/h 22.5 km/h 61% 0 mm 663.0 W/m2
10:06 22.2 °C 13.5 °C 1008.7 hPa SW 20.9 km/h 20.9 km/h 58% 0 mm 708.0 W/m2
10:21 23.1 °C 13.3 °C 1008.7 hPa SW 20.9 km/h 24.1 km/h 54% 0 mm 747.0 W/m2
10:30 23.4 °C 13.3 °C 1008.7 hPa SSW 17.7 km/h 24.1 km/h 53% 0 mm 773.0 W/m2
10:40 23.6 °C 13.2 °C 1008.7 hPa SSW 16.3 km/h 19.3 km/h 52% 0 mm 802.0 W/m2
11:02 24.8 °C 13 °C 1008.4 hPa SW 11.1 km/h 24.1 km/h 48% 0 mm 840.0 W/m2
11:16 25.3 °C 12.8 °C 1008.4 hPa SW 19.5 km/h 22.5 km/h 46% 0 mm 874.0 W/m2
11:32 25.9 °C 12.7 °C 1008.4 hPa SW 19.5 km/h 25.7 km/h 44% 0 mm 896.0 W/m2
11:47 26.3 °C 12.4 °C 1008.4 hPa South 19.5 km/h 24.1 km/h 42% 0 mm 919.0 W/m2
12:31 28 °C 10.7 °C 1007.7 hPa SW 22.7 km/h 22.7 km/h 34% 0 mm 967.0 W/m2
12:52 28.4 °C 9.6 °C 1007.3 hPa SSE 14.3 km/h 19.3 km/h 31% 0 mm 977.0 W/m2
13:06 29.3 °C 9.4 °C 1007 hPa SSW 14.3 km/h 17.7 km/h 29% 0 mm 979.0 W/m2
13:17 29.4 °C 9 °C 1007 hPa SW 16.3 km/h 17.7 km/h 28% 0 mm 976.0 W/m2
13:32 29.2 °C 8.8 °C 1007 hPa WSW 4.7 km/h 12.9 km/h 28% 0 mm 974.0 W/m2
14:02 30.1 °C 8.5 °C 1006.7 hPa South 11.1 km/h 22.5 km/h 26% 0 mm 951.0 W/m2
14:34 30.6 °C 8.3 °C 1006.3 hPa South 19.5 km/h 24.1 km/h 25% 0 mm 919.0 W/m2
14:50 30.6 °C 8.3 °C 1006.3 hPa SSW 7.9 km/h 20.9 km/h 25% 0 mm 893.0 W/m2
15:09 30.8 °C 7.3 °C 1006 hPa South 7.9 km/h 22.5 km/h 23% 0 mm 856.0 W/m2
15:23 31.2 °C 6.3 °C 1005.6 hPa SSW 19.5 km/h 25.7 km/h 21% 0 mm 823.0 W/m2
15:37 31.3 °C 6.4 °C 1005.6 hPa SW 7.9 km/h 11.3 km/h 21% 0 mm 782.0 W/m2
16:04 31.4 °C 6.4 °C 1005 hPa Calm   3.2 km/h 21% 0 mm 714.0 W/m2
16:41 31.4 °C 6.4 °C 1004.6 hPa South 16.3 km/h 17.7 km/h 21% 0 mm 610.0 W/m2
16:58 31.8 °C 6.1 °C 1004.3 hPa SSW 9.7 km/h 16.1 km/h 20% 0 mm 543.0 W/m2
17:25 32.2 °C 5.7 °C 1003.9 hPa South 7.9 km/h 16.1 km/h 19% 0 mm 457.0 W/m2
17:38 32.1 °C 6.3 °C 1003.9 hPa SSW 11.1 km/h 14.5 km/h 20% 0 mm 404.0 W/m2
18:06 31.9 °C 6.9 °C 1003.9 hPa South 22.7 km/h 25.7 km/h 21% 0 mm 301.0 W/m2
18:15 31.7 °C 7.4 °C 1003.9 hPa South 13 km/h 24.1 km/h 22% 0 mm 265.0 W/m2
18:20 31.6 °C 7.3 °C 1003.9 hPa South 19.5 km/h 27.4 km/h 22% 0 mm 246.0 W/m2
18:25 31.6 °C 7.3 °C 1003.9 hPa South 16.3 km/h 29 km/h 22% 0 mm 227.0 W/m2
18:35 31.4 °C 7.8 °C 1004.3 hPa SSW 20.9 km/h 30.6 km/h 23% 0 mm 186.0 W/m2
18:40 31.3 °C 7.7 °C 1004.3 hPa South 16.3 km/h 25.7 km/h 23% 0 mm 162.0 W/m2
18:50 31.1 °C 7.5 °C 1004.3 hPa SSE 19.5 km/h 25.7 km/h 23% 0 mm 121.0 W/m2
18:55 31.1 °C 7.5 °C 1004.3 hPa SSE 24.1 km/h 32.2 km/h 23% 0 mm 102.0 W/m2
19:05 30.8 °C 7.3 °C 1004.6 hPa SSW 22.7 km/h 32.2 km/h 23% 0 mm 65.0 W/m2
19:11 30.6 °C 7.7 °C 1004.6 hPa South 20.9 km/h 30.6 km/h 24% 0 mm 49.0 W/m2
19:16 30.3 °C 8.1 °C 1004.6 hPa SSE 27.4 km/h 30.6 km/h 25% 0 mm 32.0 W/m2
19:21 30.1 °C 7.9 °C 1004.6 hPa South 22.7 km/h 27.4 km/h 25% 0 mm 18.0 W/m2
19:26 29.9 °C 7.7 °C 1004.6 hPa South 22.7 km/h 27.4 km/h 25% 0 mm 14.0 W/m2
19:36 29.6 °C 8.1 °C 1004.6 hPa South 24.1 km/h 25.7 km/h 26% 0 mm 9.0 W/m2
19:42 29.4 °C 8.4 °C 1005 hPa South 24.1 km/h 30.6 km/h 27% 0 mm 7.0 W/m2
19:49 29.2 °C 8.3 °C 1005 hPa South 25.9 km/h 32.2 km/h 27% 0 mm 5.0 W/m2
20:00 28.9 °C 8.6 °C 1005 hPa South 19.5 km/h 33.8 km/h 28% 0 mm 0.0 W/m2
20:07 28.7 °C 8.4 °C 1005.3 hPa South 22.7 km/h 30.6 km/h 28% 0 mm 0.0 W/m2
20:17 28.1 °C 11.6 °C 1005.3 hPa SSW 22.7 km/h 37 km/h 36% 0 mm 0.0 W/m2
20:25 27.3 °C 11.7 °C 1005.6 hPa SSW 22.7 km/h 38.6 km/h 38% 0 mm 0.0 W/m2
20:38 26.9 °C 11.8 °C 1005.6 hPa SSW 30.6 km/h 33.8 km/h 39% 0 mm 0.0 W/m2
20:49 26.4 °C 12.5 °C 1005.6 hPa SSW 32 km/h 35.4 km/h 42% 0 mm 0.0 W/m2
20:56 26.2 °C 11.9 °C 1006 hPa SSW 28.8 km/h 37 km/h 41% 0 mm 0.0 W/m2
21:05 26.1 °C 11.1 °C 1006 hPa SSW 22.7 km/h 32.2 km/h 39% 0 mm 0.0 W/m2
21:11 25.9 °C 11.3 °C 1006 hPa South 30.6 km/h 40.2 km/h 40% 0 mm 0.0 W/m2
21:25 25.5 °C 11.3 °C 1006.3 hPa SSW 33.8 km/h 41.8 km/h 41% 0 mm 0.0 W/m2
21:36 25.2 °C 11.4 °C 1006.3 hPa SSW 25.9 km/h 32.2 km/h 42% 0 mm 0.0 W/m2
21:46 24.8 °C 11.7 °C 1006.3 hPa South 30.6 km/h 32.2 km/h 44% 0 mm 0.0 W/m2
21:51 24.6 °C 12.2 °C 1006.7 hPa SSW 25.9 km/h 35.4 km/h 46% 0 mm 0.0 W/m2
21:56 24.4 °C 12 °C 1006.3 hPa SSW 27.4 km/h 32.2 km/h 46% 0 mm 0.0 W/m2
22:06 24.1 °C 12.4 °C 1006.7 hPa South 17.7 km/h 30.6 km/h 48% 0 mm 0.0 W/m2
22:11 23.9 °C 12.5 °C 1006.7 hPa SSW 19.5 km/h 30.6 km/h 49% 0 mm 0.0 W/m2
22:21 23.6 °C 12.9 °C 1007 hPa SW 25.9 km/h 30.6 km/h 51% 0 mm 0.0 W/m2
22:26 23.4 °C 12.7 °C 1006.7 hPa SSW 14.3 km/h 25.7 km/h 51% 0 mm 0.0 W/m2
22:36 23.2 °C 12.8 °C 1007 hPa SSW 22.7 km/h 30.6 km/h 52% 0 mm 0.0 W/m2
22:41 23 °C 12.9 °C 1007 hPa SSW 27.4 km/h 32.2 km/h 53% 0 mm 0.0 W/m2
22:46 22.9 °C 12.8 °C 1007 hPa SSW 22.7 km/h 33.8 km/h 53% 0 mm 0.0 W/m2
23:01 22.5 °C 13 °C 1007.3 hPa South 24.1 km/h 27.4 km/h 55% 0 mm 0.0 W/m2
23:11 22.3 °C 12.8 °C 1007.3 hPa SSW 20.9 km/h 29 km/h 55% 0 mm 0.0 W/m2
23:16 22.3 °C 13.1 °C 1007.3 hPa SSW 27.4 km/h 29 km/h 56% 0 mm 0.0 W/m2
23:21 22.2 °C 13 °C 1007.3 hPa SSW 24.1 km/h 27.4 km/h 56% 0 mm 0.0 W/m2
23:26 22.1 °C 12.9 °C 1007.3 hPa SSW 22.7 km/h 29 km/h 56% 0 mm 0.0 W/m2
23:36 21.9 °C 13 °C 1007.3 hPa SSW 22.7 km/h 29 km/h 57% 0 mm 0.0 W/m2
23:46 21.8 °C 12.9 °C 1007.7 hPa SSW 11.1 km/h 25.7 km/h 57% 0 mm 0.0 W/m2
23:51 21.8 °C 13.2 °C 1007.7 hPa SSW 24.1 km/h 27.4 km/h 58% 0 mm 0.0 W/m2
Canyon Roadhouse, Fishriver Canyon, Namibia
Compliments of Weather Underground - 2.25 mb